Time;durP1;ratioP1;P1;durP2;ratioP2;P2;SDS_P1;SDS_P2;PMS_P1;PMS_P2;Temp;Humidity;BMP_temperature;BMP_pressure;BME280_temperature;BME280_humidity;BME280_pressure;Samples;Min_cycle;Max_cycle;Signal;HPM_P1;HPM_P2
2023/12/02 00:00:43;;;;;;;22.85;7.65;;;-1.10;99.90;;;;;;4995018;28;20486;-77
2023/12/02 00:03:09;;;;;;;29.92;7.63;;;-1.10;99.90;;;;;;4994783;28;20042;-77
2023/12/02 00:05:34;;;;;;;25.45;6.45;;;-1.10;99.90;;;;;;4994905;28;20019;-77
2023/12/02 00:08:00;;;;;;;23.15;7.35;;;-1.20;99.90;;;;;;4993730;28;20030;-77
2023/12/02 00:10:25;;;;;;;21.90;6.28;;;-1.10;99.90;;;;;;5009821;28;20394;-77
2023/12/02 00:12:51;;;;;;;21.48;7.20;;;-1.10;99.90;;;;;;4994664;28;20037;-77
2023/12/02 00:15:16;;;;;;;22.58;7.03;;;-1.10;99.90;;;;;;4994900;28;20034;-78
2023/12/02 00:17:42;;;;;;;22.42;7.15;;;-1.10;99.90;;;;;;4994912;28;20030;-78
2023/12/02 00:20:08;;;;;;;21.40;7.22;;;-1.20;99.90;;;;;;4993492;28;20022;-77
2023/12/02 00:22:33;;;;;;;23.08;7.00;;;-1.10;99.90;;;;;;4994904;28;20027;-78
2023/12/02 00:24:59;;;;;;;19.55;6.32;;;-1.20;99.90;;;;;;4994349;28;20058;-78
2023/12/02 00:27:24;;;;;;;23.42;6.20;;;-1.20;99.90;;;;;;4997681;28;20544;-77
2023/12/02 00:29:50;;;;;;;23.50;6.57;;;-1.20;99.90;;;;;;4998656;28;20422;-77
2023/12/02 00:32:16;;;;;;;19.35;6.85;;;-1.20;99.90;;;;;;4997142;28;20117;-77
2023/12/02 00:34:41;;;;;;;19.67;6.53;;;-1.10;99.90;;;;;;4998342;28;20027;-77
2023/12/02 00:37:07;;;;;;;26.13;8.23;;;-1.30;99.90;;;;;;4998791;28;20036;-77
2023/12/02 00:39:32;;;;;;;22.35;6.60;;;-1.20;99.90;;;;;;4997356;28;20145;-77
2023/12/02 00:41:58;;;;;;;24.83;7.30;;;-1.10;99.90;;;;;;4998464;28;20033;-77
2023/12/02 00:44:23;;;;;;;23.83;7.00;;;-1.10;99.90;;;;;;4997245;28;20022;-77
2023/12/02 00:46:49;;;;;;;21.40;7.13;;;-1.10;99.90;;;;;;4999000;28;20027;-77
2023/12/02 00:49:14;;;;;;;23.35;7.13;;;-1.10;99.90;;;;;;4997120;28;20164;-78
2023/12/02 00:51:40;;;;;;;21.10;7.47;;;-1.10;99.90;;;;;;4997884;28;20437;-77
2023/12/02 00:54:05;;;;;;;19.15;7.20;;;-1.10;99.90;;;;;;4998220;28;20042;-78
2023/12/02 00:56:31;;;;;;;24.60;7.00;;;-1.20;99.90;;;;;;4998242;28;20124;-77
2023/12/02 00:58:56;;;;;;;26.73;7.15;;;-1.20;99.90;;;;;;4996546;28;20112;-77
2023/12/02 01:01:22;;;;;;;23.15;6.93;;;-1.20;99.90;;;;;;4998548;28;20027;-78
2023/12/02 01:03:48;;;;;;;22.85;6.35;;;;;;;;;;4997916;28;20073;-78
2023/12/02 01:06:13;;;;;;;20.77;7.03;;;-1.30;99.90;;;;;;4998152;28;20077;-77
2023/12/02 01:08:39;;;;;;;22.42;7.88;;;-1.30;99.90;;;;;;4997860;28;20025;-77
2023/12/02 01:11:05;;;;;;;20.65;7.10;;;-1.30;99.90;;;;;;4997753;28;20109;-77
2023/12/02 01:13:30;;;;;;;20.33;6.85;;;-1.30;99.90;;;;;;4997907;28;20437;-77
2023/12/02 01:15:56;;;;;;;20.35;7.15;;;-1.30;99.90;;;;;;4998331;28;20029;-77
2023/12/02 01:18:22;;;;;;;26.42;7.85;;;-1.30;99.90;;;;;;4997931;28;20018;-77
2023/12/02 01:20:48;;;;;;;24.40;8.15;;;-1.20;99.90;;;;;;4997223;28;20061;-77
2023/12/02 01:23:13;;;;;;;27.40;8.32;;;-1.30;99.90;;;;;;4996670;28;20109;-77
2023/12/02 01:25:39;;;;;;;22.05;7.28;;;-1.20;99.90;;;;;;4998493;28;20097;-77
2023/12/02 01:28:06;;;;;;;23.35;6.82;;;-1.20;99.90;;;;;;4996287;28;20367;-77
2023/12/02 01:30:32;;;;;;;24.90;7.90;;;-1.20;99.90;;;;;;4997566;28;20019;-77
2023/12/02 01:32:57;;;;;;;22.58;6.30;;;-1.20;99.90;;;;;;4997487;28;20442;-77
2023/12/02 01:35:23;;;;;;;25.88;6.70;;;-1.10;99.90;;;;;;4997115;28;20573;-77
2023/12/02 01:37:48;;;;;;;23.23;7.50;;;-1.10;99.90;;;;;;4997923;28;20414;-77
2023/12/02 01:40:14;;;;;;;22.90;7.00;;;-1.10;99.90;;;;;;4996027;28;20023;-77
2023/12/02 01:42:39;;;;;;;22.75;6.75;;;-1.10;99.90;;;;;;5012718;28;20483;-77
2023/12/02 01:45:06;;;;;;;24.17;7.15;;;-1.10;99.90;;;;;;4997948;28;20374;-77
2023/12/02 01:47:31;;;;;;;23.50;7.15;;;-1.10;99.90;;;;;;4997622;28;20022;-77
2023/12/02 01:50:00;;;;;;;23.55;7.32;;;-1.00;99.90;;;;;;4995914;28;20029;-76
2023/12/02 01:52:25;;;;;;;;;;;-1.00;99.90;;;;;;4997418;28;20026;-76
2023/12/02 01:54:51;;;;;;;22.55;6.55;;;-1.00;99.90;;;;;;4997317;28;19916;-76
2023/12/02 01:57:17;;;;;;;24.98;8.13;;;-1.00;99.90;;;;;;4996086;28;20022;-76
2023/12/02 01:59:53;;;;;;;19.65;6.03;;;-1.20;99.90;;;;;;4995563;28;20483;-76
2023/12/02 02:02:19;;;;;;;19.38;6.28;;;-1.00;99.90;;;;;;4997109;28;20073;-76
2023/12/02 02:04:44;;;;;;;21.55;6.85;;;-1.00;99.90;;;;;;4997411;28;20026;-76
2023/12/02 02:07:10;;;;;;;25.42;8.35;;;-1.00;99.90;;;;;;4996898;28;20367;-76
2023/12/02 02:09:46;;;;;;;24.60;7.07;;;-1.00;99.90;;;;;;4996813;28;20048;-77
2023/12/02 02:12:12;;;;;;;22.80;6.93;;;-1.10;99.90;;;;;;4996822;28;20026;-77
2023/12/02 02:14:38;;;;;;;20.35;6.28;;;-1.10;99.90;;;;;;5012393;28;20030;-76
2023/12/02 02:17:03;;;;;;;25.90;8.23;;;-1.10;99.90;;;;;;4995739;28;20022;-77
2023/12/02 02:19:31;;;;;;;19.27;6.72;;;-1.10;99.90;;;;;;5011932;28;20026;-77
2023/12/02 02:21:56;;;;;;;21.17;6.53;;;-1.20;99.90;;;;;;4996820;28;20036;-76
2023/12/02 02:24:22;;;;;;;22.48;6.45;;;-1.30;99.90;;;;;;4995286;28;20031;-77
2023/12/02 02:26:47;;;;;;;20.98;6.63;;;-1.40;99.90;;;;;;4996628;28;20459;-77
2023/12/02 02:29:13;;;;;;;20.38;6.43;;;-1.50;99.90;;;;;;4996458;28;20055;-76
2023/12/02 02:31:39;;;;;;;24.55;7.65;;;-1.60;99.90;;;;;;4996132;28;20023;-77
2023/12/02 02:34:04;;;;;;;21.98;6.65;;;-1.70;99.90;;;;;;4995507;28;20053;-76
2023/12/02 02:36:30;;;;;;;24.92;7.13;;;-1.80;99.90;;;;;;4996971;28;20032;-77
2023/12/02 02:38:55;;;;;;;20.77;6.68;;;-1.90;99.90;;;;;;4996434;28;20030;-77
2023/12/02 02:41:21;;;;;;;24.48;7.30;;;-1.90;99.90;;;;;;4995095;28;20054;-77
2023/12/02 02:43:46;;;;;;;23.52;6.80;;;-1.90;99.90;;;;;;4996360;28;20077;-77
2023/12/02 02:46:15;;;;;;;20.92;7.15;;;-2.00;99.90;;;;;;4996569;28;20077;-77
2023/12/02 02:48:40;;;;;;;26.70;7.45;;;-2.10;99.90;;;;;;4995311;28;20022;-77
2023/12/02 02:51:06;;;;;;;20.42;6.85;;;-2.10;99.90;;;;;;4997198;28;20072;-77
2023/12/02 02:53:32;;;;;;;24.98;8.07;;;-2.10;99.90;;;;;;4995997;28;20036;-77
2023/12/02 02:55:58;;;;;;;27.50;7.45;;;-2.20;99.90;;;;;;4995987;28;20021;-77
2023/12/02 02:58:23;;;;;;;23.40;7.65;;;-2.20;99.90;;;;;;4996625;28;20474;-77
2023/12/02 03:00:49;;;;;;;23.50;7.35;;;-2.30;99.90;;;;;;4996187;28;20015;-77
2023/12/02 03:03:14;;;;;;;23.67;7.53;;;-2.30;99.90;;;;;;4996065;28;20490;-77
2023/12/02 03:05:40;;;;;;;22.38;6.78;;;-2.30;99.90;;;;;;4996335;28;20029;-77
2023/12/02 03:08:05;;;;;;;24.10;7.78;;;-2.30;99.90;;;;;;4996119;28;20101;-77
2023/12/02 03:10:31;;;;;;;24.25;7.75;;;-2.30;99.90;;;;;;4996295;28;20034;-77
2023/12/02 03:12:57;;;;;;;23.25;7.50;;;-2.30;99.90;;;;;;4996838;28;20018;-77
2023/12/02 03:15:22;;;;;;;23.75;7.55;;;-2.30;99.90;;;;;;4996044;28;20050;-77
2023/12/02 03:17:48;;;;;;;23.30;8.48;;;-2.30;99.90;;;;;;4994315;28;20030;-77
2023/12/02 03:20:13;;;;;;;20.08;6.13;;;-2.30;99.90;;;;;;4995846;28;20026;-77
2023/12/02 03:22:39;;;;;;;24.48;7.78;;;-2.30;99.90;;;;;;4993852;28;20023;-77
2023/12/02 03:25:07;;;;;;;23.60;7.57;;;-2.30;99.90;;;;;;4995483;28;20030;-76
2023/12/02 03:27:33;;;;;;;23.17;7.43;;;-2.30;99.90;;;;;;4995662;28;20423;-77
2023/12/02 03:29:58;;;;;;;28.25;7.85;;;-2.20;99.90;;;;;;4996483;28;20022;-77
2023/12/02 03:32:24;;;;;;;25.08;7.72;;;-2.20;99.90;;;;;;4994146;28;20057;-77
2023/12/02 03:34:49;;;;;;;23.45;6.40;;;-2.20;99.90;;;;;;4995416;28;20027;-76
2023/12/02 03:37:15;;;;;;;23.92;6.82;;;-2.10;99.90;;;;;;4996100;28;20053;-76
2023/12/02 03:39:40;;;;;;;24.27;8.35;;;-2.00;99.90;;;;;;4993999;28;20493;-76
2023/12/02 03:42:06;;;;;;;24.92;7.70;;;-2.00;99.90;;;;;;4994036;28;20502;-76
2023/12/02 03:44:31;;;;;;;29.83;8.57;;;-2.00;99.90;;;;;;4995547;28;20027;-76
2023/12/02 03:46:57;;;;;;;23.33;7.13;;;-2.00;99.90;;;;;;4995849;28;20018;-76
2023/12/02 03:49:23;;;;;;;25.35;7.57;;;-1.90;99.90;;;;;;4995253;28;20009;-76
2023/12/02 03:51:49;;;;;;;29.17;8.00;;;-1.90;99.90;;;;;;4993574;28;20025;-76
2023/12/02 03:54:14;;;;;;;23.95;7.70;;;-1.90;99.90;;;;;;4994808;28;20486;-76
2023/12/02 03:56:40;;;;;;;27.20;7.82;;;-1.90;99.90;;;;;;4993604;28;20022;-76
2023/12/02 03:59:08;;;;;;;28.45;8.20;;;-1.90;99.90;;;;;;4994686;28;20039;-77
2023/12/02 04:01:34;;;;;;;28.33;8.07;;;-2.00;99.90;;;;;;4993900;28;20112;-77
2023/12/02 04:03:59;;;;;;;26.10;7.90;;;-2.00;99.90;;;;;;4995581;28;20078;-77
2023/12/02 04:06:25;;;;;;;23.48;7.65;;;-2.00;99.90;;;;;;4993584;28;20023;-77
2023/12/02 04:08:50;;;;;;;24.70;6.97;;;-2.00;99.90;;;;;;4993296;28;20031;-77
2023/12/02 04:11:16;;;;;;;21.67;7.28;;;-2.00;99.90;;;;;;4995105;28;20027;-77
2023/12/02 04:13:41;;;;;;;25.98;8.00;;;-2.00;99.90;;;;;;4993752;28;20500;-77
2023/12/02 04:16:07;;;;;;;26.02;8.52;;;-2.10;99.90;;;;;;5009950;28;20058;-77
2023/12/02 04:18:33;;;;;;;25.45;7.72;;;-2.10;99.90;;;;;;4995742;28;20018;-77
2023/12/02 04:20:58;;;;;;;24.52;7.93;;;-2.10;99.90;;;;;;4993564;28;20022;-77
2023/12/02 04:23:24;;;;;;;25.20;7.10;;;-2.10;99.90;;;;;;5009906;28;20114;-77
2023/12/02 04:25:50;;;;;;;30.65;9.35;;;-2.10;99.90;;;;;;4993655;28;20014;-78
2023/12/02 04:28:16;;;;;;;25.25;7.28;;;-2.10;99.90;;;;;;4994551;28;20046;-77
2023/12/02 04:30:42;;;;;;;27.15;7.80;;;-2.10;99.90;;;;;;4993638;28;20052;-77
2023/12/02 04:33:08;;;;;;;28.52;7.75;;;-2.10;99.90;;;;;;4994806;28;20030;-78
2023/12/02 04:35:36;;;;;;;24.02;7.70;;;-2.10;99.90;;;;;;4994842;28;20037;-77
2023/12/02 04:38:04;;;;;;;27.17;8.00;;;-2.10;99.90;;;;;;4994922;28;20023;-78
2023/12/02 04:40:31;;;;;;;26.92;8.15;;;-2.10;99.90;;;;;;4995032;28;20026;-78
2023/12/02 04:42:56;;;;;;;23.52;7.97;;;-2.10;99.90;;;;;;4994611;28;20054;-78
2023/12/02 04:45:22;;;;;;;25.88;8.02;;;-2.10;99.90;;;;;;4995126;28;20018;-78
2023/12/02 04:47:47;;;;;;;24.85;7.00;;;-2.10;99.90;;;;;;4995355;28;20026;-77
2023/12/02 04:50:13;;;;;;;24.88;8.35;;;-2.10;99.90;;;;;;4995266;28;20023;-77
2023/12/02 04:52:38;;;;;;;25.40;7.60;;;-2.10;99.90;;;;;;4994689;28;20034;-77
2023/12/02 04:55:04;;;;;;;24.52;6.78;;;-2.10;99.90;;;;;;4994985;28;20034;-77
2023/12/02 04:57:30;;;;;;;27.00;8.05;;;-2.00;99.90;;;;;;5010220;28;20437;-77
2023/12/02 04:59:56;;;;;;;29.83;9.23;;;-2.00;99.90;;;;;;4994646;28;20022;-77
2023/12/02 05:02:22;;;;;;;25.20;7.47;;;-1.90;99.90;;;;;;4993638;28;20410;-77
2023/12/02 05:04:48;;;;;;;26.77;8.52;;;-1.90;99.90;;;;;;4994650;28;20513;-77
2023/12/02 05:07:14;;;;;;;27.55;8.88;;;-1.90;99.90;;;;;;4995102;28;20018;-77
2023/12/02 05:09:39;;;;;;;30.17;8.85;;;-1.90;99.90;;;;;;5009867;28;20030;-77
2023/12/02 05:12:06;;;;;;;24.55;7.22;;;-1.80;99.90;;;;;;4995838;28;20034;-77
2023/12/02 05:14:32;;;;;;;28.92;8.85;;;-1.80;99.90;;;;;;5013214;28;20034;-77
2023/12/02 05:16:57;;;;;;;27.45;8.30;;;-1.80;99.90;;;;;;4997400;28;20066;-77
2023/12/02 05:19:23;;;;;;;30.10;8.82;;;-1.80;99.90;;;;;;4997251;28;20041;-77
2023/12/02 05:21:48;;;;;;;25.40;8.07;;;-1.80;99.90;;;;;;4998008;28;20449;-77
2023/12/02 05:24:14;;;;;;;23.00;6.78;;;-1.80;99.90;;;;;;4996360;28;20093;-77
2023/12/02 05:26:39;;;;;;;23.10;7.22;;;-1.80;99.90;;;;;;4997563;28;20109;-77
2023/12/02 05:29:05;;;;;;;28.15;9.65;;;-1.90;99.90;;;;;;4996581;28;20388;-77
2023/12/02 05:31:31;;;;;;;27.55;8.43;;;-1.90;99.90;;;;;;4997622;28;20058;-76
2023/12/02 05:33:58;;;;;;;28.42;8.20;;;-1.90;99.90;;;;;;4997175;28;20027;-77
2023/12/02 05:36:23;;;;;;;29.20;8.40;;;-1.90;99.90;;;;;;4996019;28;20478;-77
2023/12/02 05:38:49;;;;;;;27.20;8.80;;;-2.00;99.90;;;;;;4997285;28;20081;-77
2023/12/02 05:41:14;;;;;;;24.42;7.82;;;-2.00;99.90;;;;;;4998296;28;20458;-77
2023/12/02 05:43:40;;;;;;;27.50;8.25;;;-2.00;99.90;;;;;;4996062;28;20023;-77
2023/12/02 05:46:06;;;;;;;25.30;7.22;;;-2.20;99.90;;;;;;4996205;28;20022;-76
2023/12/02 05:48:31;;;;;;;26.77;8.30;;;-2.20;99.90;;;;;;4997422;28;20018;-76
2023/12/02 05:51:00;;;;;;;24.70;8.00;;;-2.20;99.90;;;;;;4997563;28;20025;-76
2023/12/02 05:53:25;;;;;;;21.85;6.22;;;-2.20;99.90;;;;;;5012383;28;20023;-77
2023/12/02 05:55:51;;;;;;;24.17;7.45;;;-2.30;99.90;;;;;;4997720;28;20145;-76
2023/12/02 05:58:16;;;;;;;30.13;8.60;;;-2.30;99.90;;;;;;4995643;28;20026;-76
2023/12/02 06:00:42;;;;;;;23.50;7.93;;;-2.30;99.90;;;;;;4995699;28;20505;-77
2023/12/02 06:03:08;;;;;;;26.67;8.10;;;-2.30;99.90;;;;;;4995565;28;20025;-76
2023/12/02 06:05:33;;;;;;;26.88;8.23;;;-2.40;99.90;;;;;;4996157;28;20023;-76
2023/12/02 06:07:59;;;;;;;28.48;9.18;;;-2.40;99.90;;;;;;5012556;28;20037;-77
2023/12/02 06:10:24;;;;;;;26.38;8.65;;;-2.40;99.90;;;;;;4996603;28;20034;-76
2023/12/02 06:12:50;;;;;;;28.80;8.23;;;-2.50;99.90;;;;;;4997103;28;20161;-77
2023/12/02 06:15:15;;;;;;;29.05;7.25;;;-2.50;99.90;;;;;;4995653;28;20096;-78
2023/12/02 06:17:41;;;;;;;27.25;8.10;;;-2.50;99.90;;;;;;4995370;28;20613;-77
2023/12/02 06:20:09;;;;;;;31.02;8.77;;;-2.40;99.90;;;;;;4995425;28;20490;-77
2023/12/02 06:22:34;;;;;;;23.93;7.77;;;-2.40;99.90;;;;;;4997192;28;20102;-77
2023/12/02 06:25:00;;;;;;;28.77;9.10;;;-2.40;99.90;;;;;;4994530;28;20030;-77
2023/12/02 06:27:26;;;;;;;25.65;8.15;;;-2.30;99.90;;;;;;4996874;28;20018;-77
2023/12/02 06:29:51;;;;;;;33.05;9.00;;;-2.30;99.90;;;;;;4996645;28;20461;-77
2023/12/02 06:32:17;;;;;;;28.40;8.20;;;-2.40;99.90;;;;;;4997045;28;20034;-77
2023/12/02 06:34:43;;;;;;;29.55;9.18;;;-2.40;99.90;;;;;;4996825;28;20441;-76
2023/12/02 06:37:08;;;;;;;28.10;8.82;;;-2.40;99.90;;;;;;4994994;28;20050;-76
2023/12/02 06:39:34;;;;;;;27.45;7.95;;;-2.40;99.90;;;;;;4995057;28;20023;-76
2023/12/02 06:41:59;;;;;;;27.02;8.23;;;-2.30;99.90;;;;;;4995049;28;20371;-76
2023/12/02 06:44:25;;;;;;;24.90;7.72;;;-2.30;99.90;;;;;;4995965;28;20437;-76
2023/12/02 06:46:51;;;;;;;33.13;8.60;;;-2.40;99.90;;;;;;4996524;28;20623;-76
2023/12/02 06:49:17;;;;;;;30.15;9.93;;;-2.40;99.90;;;;;;4996353;28;20057;-76
2023/12/02 06:51:43;;;;;;;27.70;9.02;;;-2.50;99.90;;;;;;4996142;28;20023;-76
2023/12/02 06:54:09;;;;;;;29.73;8.80;;;-2.50;99.90;;;;;;4996921;28;20025;-77
2023/12/02 06:56:35;;;;;;;29.55;8.95;;;-2.50;99.90;;;;;;4996983;28;20030;-77
2023/12/02 06:59:00;;;;;;;32.28;9.52;;;-2.70;99.90;;;;;;4996082;28;20105;-77
2023/12/02 07:01:27;;;;;;;27.92;8.50;;;-2.70;99.90;;;;;;4994177;28;20065;-76
2023/12/02 07:03:58;;;;;;;32.25;9.95;;;-2.70;99.90;;;;;;4996490;28;20478;-76
2023/12/02 07:06:24;;;;;;;27.23;8.20;;;-2.80;99.90;;;;;;4996428;28;20023;-77
2023/12/02 07:08:51;;;;;;;25.50;8.18;;;-2.90;99.90;;;;;;4995892;28;20046;-76
2023/12/02 07:11:17;;;;;;;28.83;8.23;;;-2.90;99.90;;;;;;4994961;28;20065;-77
2023/12/02 07:13:43;;;;;;;29.05;8.48;;;-3.00;99.90;;;;;;4994968;28;20117;-77
2023/12/02 07:16:10;;;;;;;28.05;8.05;;;-3.00;99.90;;;;;;4995900;28;20102;-76
2023/12/02 07:18:36;;;;;;;31.23;9.20;;;-3.00;99.90;;;;;;4994259;28;20030;-77
2023/12/02 07:21:02;;;;;;;31.60;8.65;;;-3.00;99.90;;;;;;4995422;28;20073;-76
2023/12/02 07:23:30;;;;;;;26.45;8.00;;;-3.00;99.90;;;;;;4995461;28;20030;-77
2023/12/02 07:25:56;;;;;;;29.58;8.88;;;-3.00;99.90;;;;;;4994634;28;20082;-77
2023/12/02 07:28:22;;;;;;;31.75;9.93;;;-3.00;99.90;;;;;;4994380;28;20041;-76
2023/12/02 07:30:50;;;;;;;33.88;10.18;;;-2.90;99.90;;;;;;4995656;28;20018;-77
2023/12/02 07:33:18;;;;;;;32.30;9.13;;;-2.90;99.90;;;;;;4994387;28;20034;-76
2023/12/02 07:35:44;;;;;;;30.42;8.88;;;-2.80;99.90;;;;;;4994186;28;20027;-76
2023/12/02 07:38:09;;;;;;;32.40;9.35;;;-2.80;99.90;;;;;;4994588;28;20034;-76
2023/12/02 07:40:35;;;;;;;34.20;10.02;;;-2.80;99.90;;;;;;4995513;28;20153;-76
2023/12/02 07:43:01;;;;;;;34.28;9.30;;;-2.80;99.90;;;;;;4995363;28;20066;-77
2023/12/02 07:45:30;;;;;;;33.47;9.27;;;-2.70;99.90;;;;;;4995176;28;20375;-76
2023/12/02 07:47:55;;;;;;;27.50;7.80;;;-2.70;99.90;;;;;;4996969;28;20022;-76
2023/12/02 07:50:22;;;;;;;33.15;9.70;;;-2.70;99.90;;;;;;4995278;28;20018;-77
2023/12/02 07:52:47;;;;;;;33.90;9.75;;;-2.70;99.90;;;;;;5014849;28;20033;-77
2023/12/02 07:55:13;;;;;;;33.30;8.35;;;-2.70;99.90;;;;;;5014627;28;20120;-76
2023/12/02 07:57:39;;;;;;;36.55;10.73;;;-2.70;99.90;;;;;;5013961;28;20034;-76
2023/12/02 08:00:07;;;;;;;30.00;8.23;;;-2.60;99.90;;;;;;5014815;28;20022;-76
2023/12/02 08:02:33;;;;;;;33.10;10.68;;;-2.70;99.90;;;;;;5014078;28;20030;-76
2023/12/02 08:04:59;;;;;;;35.45;10.55;;;-2.60;99.90;;;;;;5014989;28;20026;-77
2023/12/02 08:07:24;;;;;;;36.47;9.95;;;-2.60;99.90;;;;;;5015052;28;20037;-77
2023/12/02 08:09:50;;;;;;;34.85;10.30;;;-2.60;99.90;;;;;;5014793;28;20097;-77
2023/12/02 08:12:15;;;;;;;35.85;11.15;;;-2.60;99.90;;;;;;5014284;28;20041;-77
2023/12/02 08:14:41;;;;;;;32.55;10.18;;;-2.50;99.90;;;;;;5013540;28;20041;-77
2023/12/02 08:17:07;;;;;;;33.20;10.07;;;-2.40;99.90;;;;;;5014855;28;20032;-77
2023/12/02 08:19:33;;;;;;;29.95;8.93;;;-2.40;99.90;;;;;;5015215;28;20014;-77
2023/12/02 08:21:59;;;;;;;32.30;10.10;;;-2.40;99.90;;;;;;5014920;28;20024;-77
2023/12/02 08:24:24;;;;;;;30.42;9.98;;;-2.30;99.90;;;;;;5013252;28;20026;-77
2023/12/02 08:26:50;;;;;;;34.97;11.65;;;-2.20;99.90;;;;;;5014949;28;20025;-77
2023/12/02 08:29:15;;;;;;;35.50;11.15;;;-2.10;99.90;;;;;;5014584;28;20037;-78
2023/12/02 08:31:41;;;;;;;35.20;9.85;;;-2.10;99.90;;;;;;5014133;28;20567;-77
2023/12/02 08:34:07;;;;;;;34.65;9.98;;;-2.10;99.90;;;;;;5014718;28;20029;-77
2023/12/02 08:36:32;;;;;;;34.33;9.63;;;-2.00;99.90;;;;;;5013400;28;20034;-77
2023/12/02 08:38:58;;;;;;;35.47;10.85;;;-1.90;99.90;;;;;;5013705;28;20026;-77
2023/12/02 08:41:24;;;;;;;31.98;9.27;;;-1.90;99.90;;;;;;5013163;28;20117;-77
2023/12/02 08:43:49;;;;;;;31.15;11.38;;;-1.80;99.90;;;;;;5012846;28;20022;-77
2023/12/02 08:46:17;;;;;;;33.50;10.13;;;-1.70;99.90;;;;;;5014684;28;20073;-78
2023/12/02 08:48:43;;;;;;;36.95;10.10;;;-1.60;99.90;;;;;;5016769;28;20040;-78
2023/12/02 08:51:09;;;;;;;36.92;9.73;;;-1.60;99.90;;;;;;5016761;28;20032;-78
2023/12/02 08:53:35;;;;;;;38.15;10.98;;;;;;;;;;5016721;28;20112;-78
2023/12/02 08:56:01;;;;;;;36.92;10.80;;;-1.50;99.90;;;;;;5016411;28;20481;-78
2023/12/02 08:58:27;;;;;;;34.00;10.27;;;-1.50;99.90;;;;;;5016228;28;20053;-78
2023/12/02 09:00:52;;;;;;;43.30;11.75;;;-1.50;99.90;;;;;;5017700;28;20033;-78
2023/12/02 09:03:18;;;;;;;31.83;10.43;;;-1.40;99.90;;;;;;5014836;28;20516;-78
2023/12/02 09:05:44;;;;;;;35.90;11.05;;;-1.30;99.90;;;;;;5017308;28;20030;-78
2023/12/02 09:08:09;;;;;;;33.10;10.50;;;-1.30;99.90;;;;;;5016286;28;20507;-75
2023/12/02 09:10:35;;;;;;;33.65;9.85;;;-1.30;99.90;;;;;;5017234;28;20033;-78
2023/12/02 09:13:06;;;;;;;37.33;11.68;;;-1.20;99.90;;;;;;5010461;28;20101;-78
2023/12/02 09:15:42;;;;;;;33.47;9.88;;;-1.10;99.90;;;;;;5025609;28;20042;-78
2023/12/02 09:18:13;;;;;;;30.67;10.57;;;-1.10;99.90;;;;;;5013804;28;20029;-79
2023/12/02 09:20:43;;;;;;;33.50;10.15;;;-0.90;99.90;;;;;;5016554;28;20512;-77
2023/12/02 09:23:10;;;;;;;36.20;10.13;;;-0.60;99.90;;;;;;5017106;28;20022;-76
2023/12/02 09:25:37;;;;;;;38.00;9.90;;;-0.80;99.90;;;;;;5015865;28;20025;-76
2023/12/02 09:28:06;;;;;;;32.83;9.05;;;-0.70;99.90;;;;;;5017084;28;20105;-76
2023/12/02 09:30:37;;;;;;;34.42;10.55;;;-0.70;99.90;;;;;;5015678;28;20493;-77
2023/12/02 09:33:06;;;;;;;32.58;10.48;;;-0.60;99.90;;;;;;5015762;28;20034;-76
2023/12/02 09:35:32;;;;;;;;;;;-0.60;99.90;;;;;;5017490;28;20076;-76
2023/12/02 09:38:00;;;;;;;34.05;10.15;;;-0.50;99.90;;;;;;5016768;28;19924;-76
2023/12/02 09:40:40;;;;;;;33.13;9.30;;;-0.50;99.90;;;;;;5017159;28;20030;-76
2023/12/02 09:43:26;;;;;;;33.50;10.45;;;-0.60;99.90;;;;;;5016244;28;20029;-76
2023/12/02 09:46:24;;;;;;;35.10;11.88;;;-0.50;99.90;;;;;;5017054;28;20032;-76
2023/12/02 09:49:24;;;;;;;26.57;8.53;;;-0.50;99.90;;;;;;5017196;28;20018;-77
2023/12/02 09:52:03;;;;;;;36.47;10.35;;;-0.50;99.90;;;;;;4976378;28;20356;-76
2023/12/02 09:54:29;;;;;;;40.10;11.85;;;-0.50;99.90;;;;;;5016902;28;20105;-76
2023/12/02 09:56:58;;;;;;;32.05;10.52;;;-0.50;99.90;;;;;;5016866;28;20062;-77
2023/12/02 09:59:39;;;;;;;;;;;-0.50;99.90;;;;;;5016908;28;20018;-77
2023/12/02 10:02:23;;;;;;;33.22;9.43;;;-0.50;99.90;;;;;;5015201;28;19910;-76
2023/12/02 10:05:10;;;;;;;37.10;10.95;;;-0.50;99.90;;;;;;5007538;28;20030;-76
2023/12/02 10:08:05;;;;;;;39.53;10.52;;;-0.50;99.90;;;;;;5014600;28;20080;-77
2023/12/02 10:10:52;;;;;;;34.00;9.68;;;-0.40;99.90;;;;;;5009626;28;20022;-75
2023/12/02 10:13:19;;;;;;;37.65;10.63;;;-0.30;99.90;;;;;;4978054;28;20044;-76
2023/12/02 10:15:48;;;;;;;33.00;11.40;;;-0.30;99.90;;;;;;5014078;28;20022;-76
2023/12/02 10:18:17;;;;;;;39.88;10.88;;;-0.20;99.90;;;;;;5015020;28;20029;-76
2023/12/02 10:20:44;;;;;;;35.30;10.05;;;-0.20;99.90;;;;;;5016099;28;20033;-76
2023/12/02 10:23:44;;;;;;;35.15;9.93;;;-0.10;99.90;;;;;;5014709;28;20201;-76
2023/12/02 10:26:27;;;;;;;30.30;9.27;;;0.10;99.90;;;;;;4996207;28;20026;-76
2023/12/02 10:28:59;;;;;;;35.03;10.88;;;0.10;99.90;;;;;;4996999;28;20040;-76
2023/12/02 10:31:27;;;;;;;31.70;9.18;;;0.20;99.90;;;;;;5011895;28;20036;-76
2023/12/02 10:34:08;;;;;;;27.65;7.75;;;0.20;99.90;;;;;;5010946;28;20022;-76
2023/12/02 10:36:34;;;;;;;29.63;8.85;;;0.30;99.90;;;;;;4996437;28;20390;-76
2023/12/02 10:39:09;;;;;;;33.10;10.70;;;0.40;99.90;;;;;;5011143;28;20014;-76
2023/12/02 10:41:56;;;;;;;30.25;9.98;;;0.40;99.90;;;;;;5013007;28;20397;-76
2023/12/02 10:44:23;;;;;;;27.30;8.45;;;0.30;99.90;;;;;;5014263;28;20037;-77
2023/12/02 10:46:49;;;;;;;33.63;10.00;;;0.50;99.90;;;;;;5014158;28;20084;-77
2023/12/02 10:49:16;;;;;;;30.08;9.48;;;0.60;99.90;;;;;;5014448;28;20040;-75
2023/12/02 10:51:42;;;;;;;30.95;9.10;;;0.70;99.90;;;;;;5014520;28;20048;-76
2023/12/02 10:54:12;;;;;;;33.45;10.88;;;0.80;99.90;;;;;;5015350;28;20078;-77
2023/12/02 10:56:41;;;;;;;29.17;9.60;;;0.90;99.90;;;;;;5015395;28;20044;-77
2023/12/02 10:59:08;;;;;;;32.58;9.82;;;0.80;99.90;;;;;;5014256;28;20053;-76
2023/12/02 11:01:45;;;;;;;36.28;9.55;;;0.90;99.90;;;;;;5015307;28;20029;-76
2023/12/02 11:04:30;;;;;;;29.65;9.98;;;1.10;99.90;;;;;;5016015;28;20373;-76
2023/12/02 11:07:04;;;;;;;35.33;10.65;;;1.10;99.90;;;;;;5015761;28;20022;-76
2023/12/02 11:10:02;;;;;;;35.28;10.35;;;1.20;99.90;;;;;;5013692;28;20049;-76
2023/12/02 11:13:11;;;;;;;31.45;9.73;;;1.20;99.90;;;;;;5014106;28;20030;-76
2023/12/02 11:15:55;;;;;;;36.00;10.57;;;1.30;99.90;;;;;;4958506;28;20132;-76
2023/12/02 11:18:43;;;;;;;31.33;9.60;;;1.40;99.90;;;;;;5014295;28;20038;-76
2023/12/02 11:21:21;;;;;;;30.17;9.57;;;1.30;99.90;;;;;;5009102;28;20409;-76
2023/12/02 11:24:01;;;;;;;33.85;11.20;;;1.30;99.90;;;;;;4995316;28;20050;-76
2023/12/02 11:27:02;;;;;;;32.42;10.75;;;1.40;99.90;;;;;;4995219;28;20054;-76
2023/12/02 11:30:17;;;;;;;29.85;10.40;;;1.50;99.90;;;;;;5010554;28;20045;-76
2023/12/02 11:33:03;;;;;;;31.75;9.93;;;1.50;99.90;;;;;;4994867;28;20034;-76
2023/12/02 11:35:38;;;;;;;33.50;10.45;;;1.50;99.90;;;;;;4994722;28;20034;-76
2023/12/02 11:38:26;;;;;;;34.42;11.02;;;1.50;99.90;;;;;;4997219;28;20038;-76
2023/12/02 11:41:19;;;;;;;23.70;7.43;;;1.70;99.90;;;;;;5013513;28;20124;-76
2023/12/02 11:44:09;;;;;;;32.53;10.48;;;1.70;99.90;;;;;;5015117;28;20384;-76
2023/12/02 11:46:55;;;;;;;33.03;10.20;;;1.70;99.90;;;;;;5014814;28;20481;-76
2023/12/02 11:49:41;;;;;;;31.63;10.13;;;1.70;99.90;;;;;;5014186;28;20061;-76
2023/12/02 11:52:24;;;;;;;34.63;10.27;;;1.80;99.90;;;;;;5014423;28;20565;-76
2023/12/02 11:54:57;;;;;;;33.10;10.63;;;1.80;99.90;;;;;;5011704;28;20021;-75
2023/12/02 11:57:47;;;;;;;33.60;11.02;;;1.90;99.90;;;;;;5014942;28;20029;-75
2023/12/02 12:00:22;;;;;;;34.70;10.98;;;2.00;99.90;;;;;;5014392;28;20540;-75
2023/12/02 12:03:19;;;;;;;40.22;12.73;;;2.30;99.90;;;;;;5015153;28;20029;-76
2023/12/02 12:06:03;;;;;;;34.13;10.88;;;2.30;99.90;;;;;;5013049;28;20086;-76
2023/12/02 12:08:39;;;;;;;29.92;10.48;;;2.70;99.90;;;;;;5013118;28;20029;-76
2023/12/02 12:11:10;;;;;;;33.33;10.40;;;2.70;99.90;;;;;;5014253;28;20410;-76
2023/12/02 12:13:35;;;;;;;35.05;10.98;;;2.70;99.90;;;;;;5012848;28;20041;-76
2023/12/02 12:16:01;;;;;;;30.00;9.68;;;2.70;99.90;;;;;;5009269;28;20068;-76
2023/12/02 12:18:27;;;;;;;37.03;11.82;;;2.70;99.90;;;;;;4996496;28;20027;-76
2023/12/02 12:20:55;;;;;;;31.98;9.45;;;2.60;99.90;;;;;;5007135;28;20065;-75
2023/12/02 12:23:23;;;;;;;28.55;10.48;;;2.70;99.90;;;;;;5032968;28;20072;-76
2023/12/02 12:25:50;;;;;;;34.22;11.50;;;2.60;99.90;;;;;;5018553;28;20057;-76
2023/12/02 12:28:15;;;;;;;33.47;10.35;;;2.60;99.90;;;;;;5007419;28;20045;-76
2023/12/02 12:30:48;;;;;;;30.95;10.52;;;2.50;99.90;;;;;;5013964;28;20026;-76
2023/12/02 12:33:16;;;;;;;34.55;11.32;;;2.50;99.90;;;;;;5017208;28;20029;-76
2023/12/02 12:35:42;;;;;;;31.08;11.20;;;2.50;99.90;;;;;;5017846;28;20022;-76
2023/12/02 12:38:11;;;;;;;32.15;11.65;;;2.50;99.90;;;;;;5016848;28;20374;-76
2023/12/02 12:40:39;;;;;;;35.08;12.30;;;2.50;99.90;;;;;;5017412;28;20021;-76
2023/12/02 12:43:07;;;;;;;31.55;11.35;;;2.60;99.90;;;;;;5016804;28;20034;-78
2023/12/02 12:45:33;;;;;;;33.57;10.80;;;2.70;99.90;;;;;;5016679;28;20022;-77